createdAt,value
2022-11-18T00:01:34.910Z,13.23
2022-11-18T00:04:05.986Z,18.92
2022-11-18T00:06:34.923Z,10.68
2022-11-18T00:09:06.947Z,11.68
2022-11-18T00:11:54.205Z,14.02
2022-11-18T00:14:27.744Z,19.33
2022-11-18T00:17:01.540Z,13.43
2022-11-18T00:19:36.105Z,14.98
2022-11-18T00:22:06.818Z,17.43
2022-11-18T00:24:39.215Z,11.30
2022-11-18T00:27:22.350Z,12.50
2022-11-18T00:29:51.993Z,12.80
2022-11-18T00:35:09.805Z,14.70
2022-11-18T00:37:43.371Z,10.52
2022-11-18T00:40:15.170Z,10.55
2022-11-18T00:42:52.007Z,13.38
2022-11-18T00:45:36.992Z,20.30
2022-11-18T00:48:08.046Z,12.05
2022-11-18T00:50:41.462Z,12.05
2022-11-18T00:53:12.291Z,13.40
2022-11-18T00:55:41.445Z,17.63
2022-11-18T00:58:25.760Z,13.15
2022-11-18T01:00:54.473Z,12.73
2022-11-18T01:03:25.624Z,17.25
2022-11-18T01:05:54.674Z,20.00
2022-11-18T01:08:26.007Z,17.30
2022-11-18T01:11:15.882Z,8.75
2022-11-18T01:13:43.394Z,16.63
2022-11-18T01:16:12.592Z,16.98
2022-11-18T01:18:42.428Z,19.70
2022-11-18T01:21:11.322Z,12.85
2022-11-18T01:23:39.719Z,19.02
2022-11-18T01:26:11.154Z,15.10
2022-11-18T01:28:43.180Z,17.00
2022-11-18T01:31:16.378Z,16.70
2022-11-18T01:33:49.098Z,23.95
2022-11-18T01:36:22.155Z,14.32
2022-11-18T01:38:56.061Z,13.70
2022-11-18T01:41:28.465Z,14.35
2022-11-18T01:44:02.343Z,14.82
2022-11-18T01:46:32.786Z,20.52
2022-11-18T01:49:09.361Z,13.13
2022-11-18T01:51:46.448Z,19.55
2022-11-18T01:54:20.692Z,16.90
2022-11-18T01:57:08.390Z,20.88
2022-11-18T01:59:41.399Z,14.93
2022-11-18T02:02:15.672Z,15.90
2022-11-18T02:04:50.408Z,15.32
2022-11-18T02:07:23.280Z,15.43
2022-11-18T02:09:54.099Z,16.55
2022-11-18T02:12:24.002Z,20.30
2022-11-18T02:14:53.938Z,16.98
2022-11-18T02:17:37.995Z,16.95
2022-11-18T02:20:37.278Z,19.60
2022-11-18T02:23:47.643Z,15.82
2022-11-18T02:27:18.586Z,20.08
2022-11-18T02:30:04.907Z,20.45
2022-11-18T02:32:47.093Z,19.45
2022-11-18T02:35:23.288Z,15.45
2022-11-18T02:37:58.650Z,21.05
2022-11-18T02:43:08.859Z,14.57
2022-11-18T02:45:44.231Z,20.05
2022-11-18T02:50:47.496Z,25.40
2022-11-18T02:53:23.093Z,16.83
2022-11-18T02:55:57.851Z,22.13
2022-11-18T02:58:29.679Z,19.30
2022-11-18T03:01:04.639Z,21.65
2022-11-18T03:03:36.440Z,18.23
2022-11-18T03:06:13.810Z,23.08
2022-11-18T03:08:49.074Z,19.73
2022-11-18T03:17:38.082Z,32.05
2022-11-18T03:20:19.873Z,23.08
2022-11-18T03:26:00.119Z,20.38
2022-11-18T03:28:36.908Z,25.17
2022-11-18T03:31:13.106Z,20.27
2022-11-18T03:33:47.573Z,21.23
2022-11-18T03:36:20.456Z,21.00
2022-11-18T03:38:54.968Z,25.90
2022-11-18T03:41:31.055Z,26.67
2022-11-18T03:44:06.083Z,26.92
2022-11-18T03:46:40.779Z,26.27
2022-11-18T03:49:13.082Z,23.77
2022-11-18T03:51:45.878Z,17.92
2022-11-18T03:54:21.385Z,19.58
2022-11-18T03:56:58.807Z,30.45
2022-11-18T03:59:33.093Z,27.02
2022-11-18T04:02:07.770Z,33.00
2022-11-18T04:04:36.726Z,30.27
2022-11-18T04:07:11.421Z,27.05
2022-11-18T04:09:47.553Z,29.02
2022-11-18T04:12:21.307Z,22.35
2022-11-18T04:14:55.326Z,22.50
2022-11-18T04:17:27.900Z,28.08
2022-11-18T04:19:56.222Z,30.80
2022-11-18T04:22:24.883Z,21.48
2022-11-18T04:24:53.916Z,30.33
2022-11-18T04:27:24.536Z,28.65
2022-11-18T04:29:54.947Z,24.90
2022-11-18T04:32:23.288Z,29.58
2022-11-18T04:34:51.630Z,25.00
2022-11-18T04:37:20.224Z,27.95
2022-11-18T04:39:48.535Z,25.73
2022-11-18T04:42:16.731Z,24.70
2022-11-18T04:44:46.465Z,31.48
2022-11-18T04:47:15.437Z,30.60
2022-11-18T04:49:43.859Z,31.92
2022-11-18T04:52:12.269Z,28.45
2022-11-18T04:54:40.477Z,31.73
2022-11-18T04:57:09.024Z,29.48
2022-11-18T04:59:37.639Z,30.70
2022-11-18T05:02:07.527Z,26.10
2022-11-18T05:04:36.280Z,31.70
2022-11-18T05:07:07.977Z,23.13
2022-11-18T05:09:37.077Z,27.33
2022-11-18T05:12:42.034Z,24.98
2022-11-18T05:16:11.931Z,26.73
2022-11-18T05:18:44.830Z,24.67
2022-11-18T05:21:47.250Z,33.72
2022-11-18T05:32:02.846Z,21.67
2022-11-18T05:34:48.263Z,22.15
2022-11-18T05:37:22.589Z,28.85
2022-11-18T05:39:51.007Z,32.65
2022-11-18T05:42:45.085Z,28.73
2022-11-18T05:45:13.629Z,34.15
2022-11-18T05:47:55.992Z,36.92
2022-11-18T05:50:26.591Z,30.30
2022-11-18T05:52:55.175Z,29.50
2022-11-18T05:55:26.988Z,28.67
2022-11-18T05:57:55.338Z,32.03
2022-11-18T06:00:24.150Z,32.60
2022-11-18T06:03:04.041Z,29.27
2022-11-18T06:05:34.324Z,36.08
2022-11-18T06:08:06.356Z,29.73
2022-11-18T06:10:37.721Z,34.28
2022-11-18T06:13:13.158Z,33.43
2022-11-18T06:15:46.276Z,33.30
2022-11-18T06:18:23.391Z,43.53
2022-11-18T06:21:01.083Z,27.17
2022-11-18T06:23:32.441Z,32.72
2022-11-18T06:26:01.030Z,32.55
2022-11-18T06:28:30.901Z,34.03
2022-11-18T06:30:59.371Z,37.40
2022-11-18T06:33:27.763Z,38.22
2022-11-18T06:35:57.650Z,38.90
2022-11-18T06:38:26.444Z,32.92
2022-11-18T06:40:55.077Z,36.53
2022-11-18T06:43:43.212Z,37.35
2022-11-18T06:46:32.234Z,40.63
2022-11-18T06:49:01.704Z,39.45
2022-11-18T06:51:33.884Z,39.78
2022-11-18T06:54:07.480Z,37.58
2022-11-18T06:56:38.953Z,34.53
2022-11-18T06:59:07.853Z,34.38
2022-11-18T07:01:39.382Z,38.75
2022-11-18T07:04:07.989Z,32.42
2022-11-18T07:06:40.125Z,36.80
2022-11-18T07:09:09.433Z,36.55
2022-11-18T07:11:40.441Z,37.28
2022-11-18T07:14:09.637Z,31.58
2022-11-18T07:16:38.484Z,37.80
2022-11-18T07:19:11.855Z,42.25
2022-11-18T07:21:43.365Z,34.88
2022-11-18T07:24:15.628Z,32.85
2022-11-18T07:26:45.131Z,34.45
2022-11-18T07:29:13.526Z,30.98
2022-11-18T07:31:42.588Z,27.70
2022-11-18T07:34:11.396Z,32.60
2022-11-18T07:36:41.302Z,29.38
2022-11-18T07:39:10.504Z,36.08
2022-11-18T07:41:41.383Z,32.65
2022-11-18T07:44:13.497Z,35.17
2022-11-18T07:46:42.728Z,34.35
2022-11-18T07:49:13.294Z,37.55
2022-11-18T07:51:43.322Z,36.85
2022-11-18T07:54:16.595Z,34.08
2022-11-18T07:56:45.741Z,31.90
2022-11-18T07:59:15.362Z,30.27
2022-11-18T08:01:43.972Z,35.35
2022-11-18T08:04:13.925Z,33.13
2022-11-18T08:06:44.227Z,34.25
2022-11-18T08:09:13.303Z,35.60
2022-11-18T08:11:42.035Z,28.25
2022-11-18T08:14:10.744Z,26.83
2022-11-18T08:16:39.293Z,28.13
2022-11-18T08:19:08.934Z,33.13
2022-11-18T08:21:37.687Z,28.15
2022-11-18T08:24:08.559Z,36.80
2022-11-18T08:26:37.828Z,22.75
2022-11-18T08:29:06.877Z,29.40
2022-11-18T08:31:35.447Z,28.05
2022-11-18T08:34:08.193Z,24.90
2022-11-18T08:36:40.367Z,29.40
2022-11-18T08:39:16.600Z,30.20
2022-11-18T08:42:24.350Z,31.08
2022-11-18T08:44:56.130Z,28.27
2022-11-18T08:47:27.432Z,27.25
2022-11-18T08:49:57.898Z,22.25
2022-11-18T08:52:27.299Z,24.98
2022-11-18T08:54:58.716Z,20.38
2022-11-18T08:57:28.215Z,22.40
2022-11-18T08:59:57.111Z,22.90
2022-11-18T09:02:26.247Z,20.48
2022-11-18T09:04:56.444Z,24.48
2022-11-18T09:07:25.744Z,20.48
2022-11-18T09:09:55.135Z,17.20
2022-11-18T09:12:25.782Z,23.27
2022-11-18T09:17:45.453Z,17.42
2022-11-18T09:20:14.456Z,16.75
2022-11-18T09:22:42.816Z,12.52
2022-11-18T09:25:13.297Z,19.77
2022-11-18T09:27:44.907Z,19.20
2022-11-18T09:30:14.533Z,18.13
2022-11-18T09:32:43.928Z,17.63
2022-11-18T09:35:12.692Z,14.98
2022-11-18T09:37:41.802Z,13.65
2022-11-18T09:40:17.867Z,13.52
2022-11-18T09:43:05.181Z,22.60
2022-11-18T09:45:40.076Z,17.90
2022-11-18T09:48:19.505Z,13.93
2022-11-18T09:50:50.666Z,16.85
2022-11-18T09:53:24.633Z,18.90
2022-11-18T09:55:59.412Z,11.40
2022-11-18T09:58:37.711Z,11.53
2022-11-18T10:01:16.410Z,10.75
2022-11-18T10:03:48.417Z,11.65
2022-11-18T10:06:27.610Z,8.57
2022-11-18T10:09:26.141Z,9.95
2022-11-18T10:12:14.760Z,11.45
2022-11-18T10:15:21.178Z,12.93
2022-11-18T10:18:00.883Z,8.02
2022-11-18T10:20:41.391Z,14.40
2022-11-18T10:23:18.660Z,13.60
2022-11-18T10:25:47.790Z,12.57
2022-11-18T10:28:22.508Z,11.57
2022-11-18T10:30:53.700Z,13.20
2022-11-18T10:33:31.085Z,13.32
2022-11-18T10:36:29.212Z,13.02
2022-11-18T10:39:14.475Z,19.25
2022-11-18T10:41:53.477Z,14.80
2022-11-18T10:44:44.639Z,14.30
2022-11-18T10:47:44.156Z,13.57
2022-11-18T10:50:35.037Z,14.73
2022-11-18T10:53:04.875Z,11.63
2022-11-18T10:55:35.532Z,13.38
2022-11-18T10:58:11.735Z,14.75
2022-11-18T11:00:47.677Z,12.50
2022-11-18T11:03:36.717Z,10.95
2022-11-18T11:06:34.882Z,12.30
2022-11-18T11:09:10.630Z,8.35
2022-11-18T11:11:43.544Z,14.75
2022-11-18T11:14:27.765Z,14.45
2022-11-18T11:17:10.613Z,14.55
2022-11-18T11:19:51.521Z,14.02
2022-11-18T11:22:20.660Z,13.07
2022-11-18T11:24:49.053Z,10.63
2022-11-18T11:30:43.660Z,15.40
2022-11-18T11:33:27.600Z,15.25
2022-11-18T11:36:28.883Z,13.68
2022-11-18T11:39:06.317Z,12.48
2022-11-18T11:41:46.873Z,11.32
2022-11-18T11:44:33.253Z,14.93
2022-11-18T11:47:39.022Z,12.40
2022-11-18T11:50:18.477Z,10.75
2022-11-18T11:53:05.511Z,17.30
2022-11-18T11:55:45.043Z,12.25
2022-11-18T11:58:35.816Z,17.02
2022-11-18T12:01:14.654Z,10.88
2022-11-18T12:03:52.032Z,14.98
2022-11-18T12:06:21.759Z,10.15
2022-11-18T12:09:06.209Z,11.57
2022-11-18T12:11:41.860Z,14.23
2022-11-18T12:14:19.805Z,7.72
2022-11-18T12:16:56.541Z,11.27
2022-11-18T12:19:25.598Z,15.27
2022-11-18T12:22:03.925Z,22.02
2022-11-18T12:24:39.420Z,12.82
2022-11-18T12:27:14.939Z,16.02
2022-11-18T12:29:55.889Z,9.63
2022-11-18T12:32:36.276Z,12.90
2022-11-18T12:35:27.414Z,14.02
2022-11-18T12:38:02.449Z,13.65
2022-11-18T12:40:47.225Z,11.93
2022-11-18T12:44:06.463Z,17.33
2022-11-18T12:46:52.825Z,13.75
2022-11-18T12:50:15.060Z,16.83
2022-11-18T12:52:54.949Z,13.82
2022-11-18T12:55:32.112Z,17.35
2022-11-18T12:58:02.471Z,16.27
2022-11-18T13:00:52.448Z,15.80
2022-11-18T13:03:29.029Z,10.48
2022-11-18T13:06:13.701Z,14.00
2022-11-18T13:08:46.650Z,16.75
2022-11-18T13:11:36.468Z,18.45
2022-11-18T13:14:32.662Z,14.90
2022-11-18T13:17:18.519Z,17.75
2022-11-18T13:22:45.443Z,18.98
2022-11-18T13:25:26.091Z,17.88
2022-11-18T13:28:04.200Z,19.40
2022-11-18T13:30:38.100Z,22.10
2022-11-18T13:33:11.938Z,20.02
2022-11-18T13:35:42.430Z,20.58
2022-11-18T13:38:27.753Z,20.77
2022-11-18T13:41:08.268Z,19.08
2022-11-18T13:43:38.190Z,21.85
2022-11-18T13:46:16.851Z,22.17
2022-11-18T13:48:52.917Z,20.98
2022-11-18T13:51:23.299Z,20.60
2022-11-18T13:53:52.793Z,20.55
2022-11-18T13:56:30.247Z,17.42
2022-11-18T13:59:16.944Z,21.27
2022-11-18T14:02:01.046Z,19.92
2022-11-18T14:04:32.951Z,22.67
2022-11-18T14:07:33.701Z,21.88
2022-11-18T14:10:07.040Z,25.15
2022-11-18T14:12:39.348Z,17.67
2022-11-18T14:15:23.457Z,18.67
2022-11-18T14:17:59.112Z,19.25
2022-11-18T14:20:31.016Z,16.55
2022-11-18T14:23:02.069Z,15.48
2022-11-18T14:25:33.280Z,22.20
2022-11-18T14:28:20.371Z,25.98
2022-11-18T14:31:04.609Z,22.65
2022-11-18T14:33:37.537Z,20.95
2022-11-18T14:36:13.599Z,20.95
2022-11-18T14:39:04.411Z,20.88
2022-11-18T14:41:48.359Z,21.67
2022-11-18T14:44:17.440Z,21.67
2022-11-18T14:46:48.527Z,24.23
2022-11-18T14:49:22.973Z,25.17
2022-11-18T14:51:52.859Z,27.30
2022-11-18T14:54:26.669Z,22.17
2022-11-18T14:57:03.512Z,22.38
2022-11-18T14:59:32.453Z,21.70
2022-11-18T15:02:00.937Z,23.02
2022-11-18T15:04:31.220Z,20.05
2022-11-18T15:07:00.067Z,26.17
2022-11-18T15:09:28.682Z,22.63
2022-11-18T15:11:57.651Z,23.63
2022-11-18T15:14:26.280Z,24.45
2022-11-18T15:16:54.801Z,26.15
2022-11-18T15:19:23.636Z,27.50
2022-11-18T15:21:54.004Z,29.05
2022-11-18T15:24:25.807Z,32.67
2022-11-18T15:26:56.845Z,32.72
2022-11-18T15:29:27.035Z,28.90
2022-11-18T15:31:55.585Z,29.95
2022-11-18T15:34:29.422Z,32.58
2022-11-18T15:37:02.010Z,25.90
2022-11-18T15:39:30.615Z,27.65
2022-11-18T15:41:59.538Z,35.35
2022-11-18T15:44:28.637Z,32.75
2022-11-18T15:46:58.416Z,30.17
2022-11-18T15:49:26.763Z,28.55
2022-11-18T15:51:55.213Z,36.65
2022-11-18T15:54:25.045Z,31.50
2022-11-18T15:56:53.885Z,28.13
2022-11-18T15:59:22.749Z,32.65
2022-11-18T16:01:54.324Z,32.17
2022-11-18T16:04:23.244Z,32.70
2022-11-18T16:06:52.042Z,30.23
2022-11-18T16:09:21.739Z,35.88
2022-11-18T16:12:10.218Z,27.08
2022-11-18T16:14:40.029Z,32.17
2022-11-18T16:17:10.316Z,33.03
2022-11-18T16:19:39.775Z,30.65
2022-11-18T16:22:08.230Z,29.58
2022-11-18T16:24:36.938Z,31.75
2022-11-18T16:27:07.275Z,39.00
2022-11-18T16:29:36.411Z,34.00
2022-11-18T16:32:15.528Z,29.95
2022-11-18T16:34:44.366Z,96.70
2022-11-18T16:37:13.477Z,84.75
2022-11-18T16:39:42.570Z,36.47
2022-11-18T16:42:14.170Z,31.27
2022-11-18T16:44:46.186Z,41.03
2022-11-18T16:47:15.777Z,30.15
2022-11-18T16:49:45.599Z,30.08
2022-11-18T16:52:16.340Z,29.67
2022-11-18T16:54:46.323Z,30.65
2022-11-18T16:57:16.913Z,30.00
2022-11-18T16:59:46.259Z,32.03
2022-11-18T17:02:15.710Z,34.67
2022-11-18T17:04:44.605Z,28.35
2022-11-18T17:07:16.266Z,29.00
2022-11-18T17:09:46.088Z,33.20
2022-11-18T17:12:18.224Z,29.70
2022-11-18T17:14:47.192Z,29.95
2022-11-18T17:17:15.686Z,31.85
2022-11-18T17:19:44.895Z,36.72
2022-11-18T17:22:13.637Z,36.13
2022-11-18T17:24:42.368Z,38.83
2022-11-18T17:27:10.782Z,35.75
2022-11-18T17:29:40.994Z,36.42
2022-11-18T17:32:11.601Z,32.00
2022-11-18T17:34:39.937Z,33.13
2022-11-18T17:37:09.064Z,31.85
2022-11-18T17:39:37.563Z,31.08
2022-11-18T17:42:15.469Z,27.83
2022-11-18T17:44:45.516Z,32.45
2022-11-18T17:47:14.405Z,40.55
2022-11-18T17:49:43.840Z,37.55
2022-11-18T17:52:12.365Z,35.83
2022-11-18T17:54:41.926Z,42.50
2022-11-18T17:57:10.188Z,38.22
2022-11-18T17:59:38.785Z,45.65
2022-11-18T18:02:09.492Z,40.45
2022-11-18T18:04:39.450Z,43.47
2022-11-18T18:07:09.317Z,45.33
2022-11-18T18:09:38.852Z,49.83
2022-11-18T18:12:21.771Z,46.85
2022-11-18T18:14:56.380Z,51.00
2022-11-18T18:17:30.097Z,48.22
2022-11-18T18:19:58.691Z,51.50
2022-11-18T18:22:27.338Z,55.25
2022-11-18T18:24:56.334Z,40.80
2022-11-18T18:27:25.026Z,47.58
2022-11-18T18:29:53.846Z,52.03
2022-11-18T18:32:22.486Z,48.90
2022-11-18T18:34:52.708Z,46.30
2022-11-18T18:37:21.733Z,47.53
2022-11-18T18:39:50.552Z,49.08
2022-11-18T18:42:18.994Z,41.38
2022-11-18T18:45:05.162Z,44.35
2022-11-18T18:47:37.280Z,44.22
2022-11-18T18:50:08.990Z,39.30
2022-11-18T18:52:37.883Z,55.88
2022-11-18T18:55:07.483Z,44.00
2022-11-18T18:57:36.510Z,38.45
2022-11-18T19:00:09.013Z,36.45
2022-11-18T19:02:37.723Z,35.75
2022-11-18T19:05:09.786Z,40.47
2022-11-18T19:07:38.860Z,36.47
2022-11-18T19:10:09.165Z,43.80
2022-11-18T19:12:52.067Z,42.72
2022-11-18T19:15:23.187Z,44.45
2022-11-18T19:17:52.314Z,39.67
2022-11-18T19:20:39.056Z,38.10
2022-11-18T19:23:11.028Z,40.70
2022-11-18T19:25:44.373Z,37.58
2022-11-18T19:28:13.740Z,36.17
2022-11-18T19:30:43.660Z,35.42
2022-11-18T19:33:18.523Z,40.85
2022-11-18T19:35:48.727Z,48.38
2022-11-18T19:38:17.366Z,77.15
2022-11-18T19:40:46.326Z,39.30
2022-11-18T19:43:36.330Z,40.65
2022-11-18T19:46:12.274Z,43.10
2022-11-18T19:48:41.458Z,60.17
2022-11-18T19:51:19.027Z,44.50
2022-11-18T19:53:48.617Z,71.07
2022-11-18T19:56:20.586Z,43.88
2022-11-18T19:58:50.938Z,38.15
2022-11-18T20:01:23.622Z,39.10
2022-11-18T20:03:59.336Z,30.27
2022-11-18T20:06:33.490Z,29.92
2022-11-18T20:09:08.837Z,34.38
2022-11-18T20:11:41.242Z,31.90
2022-11-18T20:14:16.239Z,30.98
2022-11-18T20:16:48.550Z,29.25
2022-11-18T20:19:21.031Z,33.20
2022-11-18T20:21:56.026Z,30.75
2022-11-18T20:24:34.207Z,64.55
2022-11-18T20:27:04.437Z,37.53
2022-11-18T20:29:37.449Z,32.92
2022-11-18T20:32:07.267Z,29.17
2022-11-18T20:34:36.749Z,28.92
2022-11-18T20:37:07.387Z,28.23
2022-11-18T20:39:39.867Z,31.73
2022-11-18T20:42:26.463Z,29.15
2022-11-18T20:44:55.048Z,31.50
2022-11-18T20:47:24.999Z,32.08
2022-11-18T20:49:57.952Z,28.55
2022-11-18T20:52:31.376Z,32.35
2022-11-18T20:55:05.486Z,27.35
2022-11-18T20:57:34.654Z,28.63
2022-11-18T21:00:04.187Z,30.30
2022-11-18T21:02:32.869Z,29.65
2022-11-18T21:05:02.494Z,28.38
2022-11-18T21:07:36.872Z,26.80
2022-11-18T21:10:08.121Z,27.27
2022-11-18T21:12:40.507Z,34.10
2022-11-18T21:15:13.663Z,29.35
2022-11-18T21:17:44.034Z,27.13
2022-11-18T21:20:27.073Z,28.98
2022-11-18T21:23:02.116Z,30.65
2022-11-18T21:25:32.227Z,27.77
2022-11-18T21:28:01.798Z,34.03
2022-11-18T21:30:31.270Z,33.80
2022-11-18T21:33:00.356Z,29.15
2022-11-18T21:35:34.287Z,29.23
2022-11-18T21:38:06.379Z,36.58
2022-11-18T21:40:36.223Z,30.45
2022-11-18T21:43:07.323Z,31.90
2022-11-18T21:45:36.690Z,33.72
2022-11-18T21:48:07.675Z,42.17
2022-11-18T21:50:44.602Z,35.53
2022-11-18T21:53:24.078Z,39.60
2022-11-18T21:55:56.426Z,46.10
2022-11-18T21:58:26.365Z,41.15
2022-11-18T22:00:55.276Z,42.92
2022-11-18T22:03:24.190Z,47.05
2022-11-18T22:06:00.112Z,44.65
2022-11-18T22:11:20.905Z,44.00
2022-11-18T22:13:53.898Z,44.58
2022-11-18T22:16:25.038Z,45.13
2022-11-18T22:19:03.707Z,45.58
2022-11-18T22:21:36.816Z,45.50
2022-11-18T22:24:08.469Z,43.53
2022-11-18T22:26:37.427Z,43.00
2022-11-18T22:29:06.904Z,42.22
2022-11-18T22:31:35.794Z,42.38
2022-11-18T22:34:04.333Z,40.60
2022-11-18T22:36:35.433Z,41.45
2022-11-18T22:39:06.043Z,51.65
2022-11-18T22:41:54.963Z,40.72
2022-11-18T22:44:26.383Z,43.10
2022-11-18T22:46:54.970Z,41.25
2022-11-18T22:49:24.197Z,48.42
2022-11-18T22:51:54.103Z,43.83
2022-11-18T22:54:38.225Z,47.25
2022-11-18T22:57:10.316Z,42.42
2022-11-18T22:59:40.535Z,43.15
2022-11-18T23:02:09.619Z,45.20
2022-11-18T23:04:38.894Z,42.88
2022-11-18T23:07:08.419Z,41.22
2022-11-18T23:09:37.686Z,46.65
2022-11-18T23:12:24.037Z,42.70
2022-11-18T23:14:54.317Z,49.30
2022-11-18T23:17:23.197Z,43.13
2022-11-18T23:19:51.741Z,43.50
2022-11-18T23:22:20.003Z,47.95
2022-11-18T23:24:49.219Z,46.85
2022-11-18T23:27:18.007Z,41.28
2022-11-18T23:29:46.750Z,39.35
2022-11-18T23:32:32.844Z,45.17
2022-11-18T23:35:02.269Z,42.85
2022-11-18T23:37:31.168Z,40.10
2022-11-18T23:40:00.220Z,41.13
2022-11-18T23:42:28.927Z,40.60
2022-11-18T23:45:02.291Z,37.83
2022-11-18T23:47:36.844Z,45.90
2022-11-18T23:50:06.270Z,45.25
2022-11-18T23:52:34.986Z,39.35
2022-11-18T23:55:05.183Z,39.67
2022-11-18T23:57:34.069Z,42.38
